createdAt,value
2022-11-05T00:01:27.515Z,22.60
2022-11-05T00:04:15.929Z,22.70
2022-11-05T00:07:04.656Z,22.60
2022-11-05T00:09:34.752Z,22.60
2022-11-05T00:12:27.588Z,22.60
2022-11-05T00:15:16.747Z,22.60
2022-11-05T00:17:45.588Z,22.60
2022-11-05T00:20:14.726Z,22.70
2022-11-05T00:23:03.045Z,22.70
2022-11-05T00:25:32.140Z,22.70
2022-11-05T00:28:03.647Z,22.70
2022-11-05T00:30:32.736Z,22.80
2022-11-05T00:33:04.768Z,22.80
2022-11-05T00:35:33.571Z,22.80
2022-11-05T00:38:05.101Z,22.80
2022-11-05T00:40:36.602Z,22.90
2022-11-05T00:43:24.983Z,22.90
2022-11-05T00:45:53.762Z,23.00
2022-11-05T00:48:42.601Z,23.10
2022-11-05T00:51:12.188Z,23.10
2022-11-05T00:53:41.165Z,23.20
2022-11-05T00:56:10.427Z,23.20
2022-11-05T00:58:39.412Z,23.30
2022-11-05T01:01:08.173Z,23.30
2022-11-05T01:03:38.874Z,23.40
2022-11-05T01:06:11.916Z,23.40
2022-11-05T01:08:42.068Z,23.40
2022-11-05T01:11:33.925Z,23.50
2022-11-05T01:14:06.365Z,23.50
2022-11-05T01:16:35.941Z,23.50
2022-11-05T01:19:07.260Z,23.60
2022-11-05T01:21:36.480Z,23.60
2022-11-05T01:24:05.705Z,23.60
2022-11-05T01:26:34.529Z,23.70
2022-11-05T01:29:03.427Z,23.70
2022-11-05T01:31:32.169Z,23.70
2022-11-05T01:34:02.707Z,23.80
2022-11-05T01:36:31.437Z,23.80
2022-11-05T01:39:00.153Z,23.80
2022-11-05T01:41:29.034Z,23.80
2022-11-05T01:44:00.971Z,23.90
2022-11-05T01:46:39.927Z,24.00
2022-11-05T01:49:17.392Z,24.00
2022-11-05T01:51:47.464Z,24.00
2022-11-05T01:54:20.677Z,24.10
2022-11-05T01:56:54.699Z,24.10
2022-11-05T01:59:27.351Z,24.20
2022-11-05T02:01:56.703Z,24.20
2022-11-05T02:04:32.378Z,24.30
2022-11-05T02:07:01.911Z,24.30
2022-11-05T02:09:51.092Z,24.30
2022-11-05T02:12:21.749Z,24.40
2022-11-05T02:14:51.697Z,24.50
2022-11-05T02:17:46.507Z,24.50
2022-11-05T02:20:24.557Z,24.50
2022-11-05T02:23:28.897Z,24.60
2022-11-05T02:26:25.416Z,24.60
2022-11-05T02:28:59.902Z,24.70
2022-11-05T02:31:34.948Z,24.70
2022-11-05T02:34:24.055Z,24.80
2022-11-05T02:37:00.440Z,24.80
2022-11-05T02:39:35.893Z,24.80
2022-11-05T02:42:12.337Z,24.90
2022-11-05T02:44:43.017Z,24.90
2022-11-05T02:47:28.470Z,25.00
2022-11-05T02:50:26.964Z,25.00
2022-11-05T02:53:02.769Z,25.10
2022-11-05T02:55:39.802Z,25.20
2022-11-05T02:58:09.313Z,25.20
2022-11-05T03:00:55.651Z,25.30
2022-11-05T03:03:26.241Z,25.30
2022-11-05T03:06:16.011Z,25.30
2022-11-05T03:09:11.150Z,25.30
2022-11-05T03:12:19.694Z,25.40
2022-11-05T03:15:04.985Z,25.40
2022-11-05T03:17:44.308Z,25.40
2022-11-05T03:20:26.030Z,25.40
2022-11-05T03:23:02.974Z,25.50
2022-11-05T03:25:34.962Z,25.50
2022-11-05T03:28:08.032Z,25.50
2022-11-05T03:30:39.742Z,25.60
2022-11-05T03:33:14.974Z,25.60
2022-11-05T03:35:47.879Z,25.60
2022-11-05T03:38:23.855Z,25.80
2022-11-05T03:40:57.219Z,25.80
2022-11-05T03:43:31.174Z,25.90
2022-11-05T03:46:06.495Z,25.90
2022-11-05T03:48:40.676Z,26.00
2022-11-05T03:51:15.663Z,26.00
2022-11-05T03:53:51.190Z,26.10
2022-11-05T03:56:28.107Z,26.10
2022-11-05T03:58:59.284Z,26.10
2022-11-05T04:01:29.652Z,26.10
2022-11-05T04:03:59.159Z,26.20
2022-11-05T04:06:47.944Z,26.20
2022-11-05T04:09:36.993Z,26.20
2022-11-05T04:12:25.515Z,26.30
2022-11-05T04:14:54.223Z,26.40
2022-11-05T04:17:22.965Z,26.40
2022-11-05T04:20:11.408Z,26.50
2022-11-05T04:22:59.731Z,26.50
2022-11-05T04:25:28.543Z,26.60
2022-11-05T04:28:01.856Z,26.70
2022-11-05T04:30:30.681Z,26.70
2022-11-05T04:33:05.209Z,26.70
2022-11-05T04:35:38.002Z,26.80
2022-11-05T04:38:07.258Z,26.80
2022-11-05T04:40:38.207Z,26.90
2022-11-05T04:43:13.658Z,26.90
2022-11-05T04:45:44.387Z,27.00
2022-11-05T04:48:13.513Z,27.00
2022-11-05T04:50:42.988Z,27.10
2022-11-05T04:53:12.012Z,27.10
2022-11-05T04:55:41.285Z,27.10
2022-11-05T04:58:11.050Z,27.20
2022-11-05T05:00:39.876Z,27.20
2022-11-05T05:03:08.896Z,27.20
2022-11-05T05:05:38.299Z,27.20
2022-11-05T05:08:07.351Z,27.30
2022-11-05T05:10:36.309Z,27.30
2022-11-05T05:13:05.152Z,27.30
2022-11-05T05:15:34.590Z,27.40
2022-11-05T05:18:03.284Z,27.40
2022-11-05T05:20:51.672Z,27.50
2022-11-05T05:23:20.349Z,27.50
2022-11-05T05:25:49.546Z,27.50
2022-11-05T05:28:18.722Z,27.50
2022-11-05T05:30:47.468Z,27.50
2022-11-05T05:33:16.277Z,27.50
2022-11-05T05:35:45.227Z,27.50
2022-11-05T05:38:13.901Z,27.60
2022-11-05T05:40:42.816Z,27.60
2022-11-05T05:43:11.865Z,27.60
2022-11-05T05:45:40.835Z,27.60
2022-11-05T05:48:09.800Z,27.70
2022-11-05T05:50:40.418Z,27.70
2022-11-05T05:53:10.975Z,27.80
2022-11-05T05:55:40.416Z,27.90
2022-11-05T05:58:09.674Z,28.00
2022-11-05T06:00:39.146Z,28.10
2022-11-05T06:03:08.592Z,28.10
2022-11-05T06:05:38.149Z,28.00
2022-11-05T06:08:07.112Z,28.10
2022-11-05T06:10:36.483Z,28.10
2022-11-05T06:13:05.442Z,28.20
2022-11-05T06:15:35.996Z,28.20
2022-11-05T06:18:05.009Z,28.30
2022-11-05T06:20:33.735Z,28.30
2022-11-05T06:23:02.476Z,28.30
2022-11-05T06:25:31.186Z,28.30
2022-11-05T06:28:00.000Z,28.40
2022-11-05T06:30:28.803Z,28.40
2022-11-05T06:32:57.530Z,28.40
2022-11-05T06:35:26.245Z,28.40
2022-11-05T06:37:55.217Z,28.50
2022-11-05T06:40:23.945Z,28.50
2022-11-05T06:42:54.672Z,28.50
2022-11-05T06:45:23.688Z,28.50
2022-11-05T06:47:58.052Z,28.60
2022-11-05T06:50:28.683Z,28.60
2022-11-05T06:53:01.087Z,28.60
2022-11-05T06:55:32.127Z,28.60
2022-11-05T06:58:00.972Z,28.60
2022-11-05T07:00:30.032Z,28.50
2022-11-05T07:03:07.264Z,28.50
2022-11-05T07:05:38.733Z,28.50
2022-11-05T07:08:07.702Z,28.50
2022-11-05T07:10:37.521Z,28.50
2022-11-05T07:13:08.411Z,28.50
2022-11-05T07:15:38.796Z,28.50
2022-11-05T07:18:08.681Z,28.50
2022-11-05T07:20:37.615Z,28.50
2022-11-05T07:23:11.676Z,28.60
2022-11-05T07:25:41.878Z,28.60
2022-11-05T07:28:11.915Z,28.60
2022-11-05T07:30:40.604Z,28.60
2022-11-05T07:33:09.698Z,28.70
2022-11-05T07:35:39.080Z,28.70
2022-11-05T07:38:08.662Z,28.70
2022-11-05T07:40:37.491Z,28.80
2022-11-05T07:43:06.273Z,28.80
2022-11-05T07:45:35.195Z,28.80
2022-11-05T07:48:06.402Z,28.80
2022-11-05T07:50:37.277Z,28.80
2022-11-05T07:53:08.978Z,28.70
2022-11-05T07:55:38.005Z,28.70
2022-11-05T07:58:06.847Z,28.70
2022-11-05T08:00:35.915Z,28.70
2022-11-05T08:03:08.534Z,28.70
2022-11-05T08:05:40.370Z,28.70
2022-11-05T08:08:10.995Z,28.70
2022-11-05T08:10:40.174Z,28.70
2022-11-05T08:13:10.737Z,28.70
2022-11-05T08:15:40.247Z,28.60
2022-11-05T08:18:12.632Z,28.70
2022-11-05T08:20:43.274Z,28.70
2022-11-05T08:23:13.017Z,28.70
2022-11-05T08:25:43.061Z,28.70
2022-11-05T08:28:14.560Z,28.80
2022-11-05T08:30:43.467Z,28.70
2022-11-05T08:33:14.271Z,28.80
2022-11-05T08:35:43.981Z,28.80
2022-11-05T08:38:16.435Z,28.80
2022-11-05T08:40:54.482Z,28.80
2022-11-05T08:43:23.212Z,28.70
2022-11-05T08:45:52.075Z,28.70
2022-11-05T08:48:21.242Z,28.70
2022-11-05T08:50:50.775Z,28.70
2022-11-05T08:53:20.276Z,28.60
2022-11-05T08:55:51.219Z,28.70
2022-11-05T08:58:21.256Z,28.60
2022-11-05T09:00:51.667Z,28.60
2022-11-05T09:03:20.511Z,28.60
2022-11-05T09:05:49.409Z,28.60
2022-11-05T09:08:20.088Z,28.60
2022-11-05T09:10:50.819Z,28.70
2022-11-05T09:13:20.455Z,28.70
2022-11-05T09:15:51.500Z,28.70
2022-11-05T09:18:21.669Z,28.60
2022-11-05T09:20:50.484Z,28.60
2022-11-05T09:23:19.259Z,28.70
2022-11-05T09:25:48.478Z,28.60
2022-11-05T09:28:21.163Z,28.60
2022-11-05T09:30:51.229Z,28.50
2022-11-05T09:33:22.347Z,28.50
2022-11-05T14:32:52.010Z,24.60
2022-11-05T14:35:21.643Z,24.60
2022-11-05T14:37:59.046Z,24.60
2022-11-05T14:40:46.018Z,24.60
2022-11-05T14:43:16.750Z,24.70
2022-11-05T14:46:08.754Z,24.70
2022-11-05T14:48:43.427Z,24.70
2022-11-05T14:51:28.217Z,24.80
2022-11-05T14:54:10.472Z,24.80
2022-11-05T14:56:55.878Z,24.80
2022-11-05T14:59:29.201Z,24.80
2022-11-05T15:02:08.864Z,24.70
2022-11-05T15:04:41.615Z,24.70
2022-11-05T15:07:11.764Z,24.70
2022-11-05T15:09:51.805Z,24.60
2022-11-05T15:12:50.343Z,24.60
2022-11-05T15:15:28.646Z,24.50
2022-11-05T15:18:02.015Z,24.50
2022-11-05T15:20:46.777Z,24.40
2022-11-05T15:23:20.764Z,24.40
2022-11-05T15:26:10.855Z,24.30
2022-11-05T15:28:46.082Z,24.30
2022-11-05T15:31:15.718Z,24.30
2022-11-05T15:33:48.529Z,24.30
2022-11-05T15:36:22.273Z,24.20
2022-11-05T15:39:08.502Z,24.20
2022-11-05T15:41:40.576Z,24.20
2022-11-05T15:44:29.929Z,24.20
2022-11-05T15:47:20.475Z,24.20
2022-11-05T15:49:52.766Z,24.20
2022-11-05T15:52:25.194Z,24.20
2022-11-05T15:55:14.144Z,24.20
2022-11-05T15:57:51.180Z,24.20
2022-11-05T16:00:28.492Z,24.20
2022-11-05T16:02:58.150Z,24.20
2022-11-05T16:05:30.653Z,24.30
2022-11-05T16:08:01.201Z,24.30
2022-11-05T16:10:35.617Z,24.30
2022-11-05T16:13:40.619Z,24.30
2022-11-05T16:16:31.757Z,24.30
2022-11-05T16:19:00.552Z,24.30
2022-11-05T16:21:29.775Z,24.30
2022-11-05T16:24:01.034Z,24.20
2022-11-05T16:27:02.272Z,24.20
2022-11-05T16:29:40.858Z,24.30
2022-11-05T16:32:30.564Z,24.30
2022-11-05T16:35:03.168Z,24.20
2022-11-05T16:37:40.780Z,24.20
2022-11-05T16:40:18.525Z,24.20
2022-11-05T16:42:49.591Z,24.20
2022-11-05T16:45:20.073Z,24.20
2022-11-05T16:47:49.934Z,24.10
2022-11-05T16:50:23.373Z,24.10
2022-11-05T16:52:52.631Z,24.10
2022-11-05T16:55:21.979Z,24.00
2022-11-05T16:57:54.969Z,24.00
2022-11-05T17:03:42.822Z,24.00
2022-11-05T17:06:12.745Z,23.90
2022-11-05T17:08:42.262Z,23.90
2022-11-05T17:11:15.660Z,23.90
2022-11-05T17:13:45.222Z,23.90
2022-11-05T17:16:17.873Z,23.90
2022-11-05T17:18:48.055Z,24.00
2022-11-05T17:21:16.834Z,24.00
2022-11-05T17:23:45.533Z,24.00
2022-11-05T17:26:16.200Z,24.00
2022-11-05T17:28:45.477Z,24.10
2022-11-05T17:31:15.243Z,24.00
2022-11-05T17:33:44.485Z,24.00
2022-11-05T17:36:15.890Z,24.00
2022-11-05T17:38:46.121Z,24.00
2022-11-05T17:41:17.185Z,23.90
2022-11-05T17:43:46.422Z,23.90
2022-11-05T17:46:17.850Z,23.90
2022-11-05T17:48:47.494Z,23.80
2022-11-05T17:51:19.462Z,23.80
2022-11-05T17:53:50.102Z,23.80
2022-11-05T17:56:32.460Z,23.70
2022-11-05T17:59:04.267Z,23.70
2022-11-05T18:01:36.663Z,23.70
2022-11-05T18:04:08.917Z,23.70
2022-11-05T18:06:39.752Z,23.70
2022-11-05T18:09:10.556Z,23.60
2022-11-05T18:11:40.133Z,23.60
2022-11-05T18:14:09.017Z,23.60
2022-11-05T18:16:38.636Z,23.60
2022-11-05T18:19:07.791Z,23.60
2022-11-05T18:21:36.971Z,23.50
2022-11-05T18:24:07.717Z,23.50
2022-11-05T18:26:36.868Z,23.40
2022-11-05T18:29:07.125Z,23.50
2022-11-05T18:31:35.885Z,23.40
2022-11-05T18:34:05.179Z,23.40
2022-11-05T18:36:35.521Z,23.40
2022-11-05T18:39:06.271Z,23.40
2022-11-05T18:41:35.097Z,23.40
2022-11-05T18:44:05.154Z,23.40
2022-11-05T18:49:23.885Z,23.30
2022-11-05T18:51:52.681Z,23.30
2022-11-05T18:54:21.614Z,23.30
2022-11-05T18:56:50.678Z,23.30
2022-11-05T18:59:39.222Z,23.20
2022-11-05T19:02:10.288Z,23.20
2022-11-05T19:04:39.520Z,23.20
2022-11-05T19:07:09.692Z,23.10
2022-11-05T19:09:39.658Z,23.20
2022-11-05T19:12:09.279Z,23.10
2022-11-05T19:14:38.620Z,23.10
2022-11-05T19:17:07.488Z,23.10
2022-11-05T19:19:36.214Z,23.10
2022-11-05T19:22:05.379Z,23.10
2022-11-05T19:24:34.453Z,23.10
2022-11-05T19:27:03.960Z,23.10
2022-11-05T19:29:32.991Z,23.10
2022-11-05T19:32:01.816Z,23.10
2022-11-05T19:34:30.592Z,23.10
2022-11-05T19:36:59.323Z,23.00
2022-11-05T19:39:28.099Z,23.00
2022-11-05T19:42:02.979Z,23.00
2022-11-05T19:44:32.945Z,22.90
2022-11-05T19:47:01.698Z,22.90
2022-11-05T19:49:30.459Z,22.90
2022-11-05T19:51:59.260Z,22.90
2022-11-05T19:54:30.832Z,22.90
2022-11-05T19:56:59.802Z,22.80
2022-11-05T19:59:28.625Z,22.80
2022-11-05T20:01:57.578Z,22.80
2022-11-05T20:04:26.550Z,22.80
2022-11-05T20:06:55.304Z,22.80
2022-11-05T20:09:24.282Z,22.80
2022-11-05T20:11:57.100Z,22.80
2022-11-05T20:14:27.737Z,22.80
2022-11-05T20:16:56.633Z,22.80
2022-11-05T20:19:25.554Z,22.80
2022-11-05T20:21:54.440Z,22.80
2022-11-05T20:24:25.514Z,22.80
2022-11-05T20:26:57.182Z,22.80
2022-11-05T20:29:34.724Z,22.80
2022-11-05T20:32:05.538Z,22.80
2022-11-05T20:34:35.981Z,22.80
2022-11-05T20:37:05.235Z,22.80
2022-11-05T20:39:34.143Z,22.80
2022-11-05T20:42:02.929Z,22.70
2022-11-05T20:44:31.777Z,22.70
2022-11-05T20:47:00.572Z,22.70
2022-11-05T20:49:29.361Z,22.70
2022-11-05T20:51:59.082Z,22.70
2022-11-05T20:54:27.868Z,22.60
2022-11-05T20:56:56.784Z,22.70
2022-11-05T20:59:25.665Z,22.60
2022-11-05T21:01:55.136Z,22.60
2022-11-05T21:04:25.035Z,22.70
2022-11-05T21:06:54.325Z,22.60
2022-11-05T21:09:23.593Z,22.70
2022-11-05T21:12:11.991Z,22.70
2022-11-05T21:14:43.109Z,22.60
2022-11-05T21:17:13.630Z,22.60
2022-11-05T21:19:42.397Z,22.60
2022-11-05T21:22:11.196Z,22.60
2022-11-05T21:24:39.964Z,22.50
2022-11-05T21:27:08.686Z,22.50
2022-11-05T21:29:40.835Z,22.50
2022-11-05T21:32:09.714Z,22.50
2022-11-05T21:34:38.425Z,22.50
2022-11-05T21:37:07.916Z,22.40
2022-11-05T21:39:36.772Z,22.40
2022-11-05T21:42:05.593Z,22.40
2022-11-05T21:44:34.351Z,22.40
2022-11-05T21:47:05.499Z,22.40
2022-11-05T21:49:36.797Z,22.40
2022-11-05T21:52:26.387Z,22.40
2022-11-05T21:55:17.553Z,22.40
2022-11-05T21:58:05.966Z,22.40
2022-11-05T22:00:39.111Z,22.40
2022-11-05T22:03:07.926Z,22.40
2022-11-05T22:05:36.864Z,22.40
2022-11-05T22:08:05.728Z,22.40
2022-11-05T22:10:34.563Z,22.40
2022-11-05T22:13:03.366Z,22.40
2022-11-05T22:15:32.159Z,22.30
2022-11-05T22:18:02.395Z,22.40
2022-11-05T22:20:31.168Z,22.30
2022-11-05T22:23:00.254Z,22.30
2022-11-05T22:25:29.086Z,22.30
2022-11-05T22:27:57.850Z,22.30
2022-11-05T22:30:28.579Z,22.30
2022-11-05T22:32:57.355Z,22.30
2022-11-05T22:35:26.117Z,22.20
2022-11-05T22:37:54.887Z,22.20
2022-11-05T22:40:24.303Z,22.20
2022-11-05T22:42:53.129Z,22.10
2022-11-05T22:45:21.917Z,22.10
2022-11-05T22:47:50.783Z,22.10
2022-11-05T22:50:19.559Z,22.10
2022-11-05T22:52:48.261Z,22.10
2022-11-05T22:55:17.162Z,22.10
2022-11-05T22:57:45.978Z,22.10
2022-11-05T23:00:18.318Z,22.10
2022-11-05T23:02:47.301Z,22.10
2022-11-05T23:05:18.573Z,22.10
2022-11-05T23:08:07.874Z,22.10
2022-11-05T23:10:58.504Z,22.10
2022-11-05T23:13:27.483Z,22.10
2022-11-05T23:16:15.831Z,22.10
2022-11-05T23:19:04.367Z,22.00
2022-11-05T23:21:53.567Z,22.00
2022-11-05T23:24:23.298Z,22.00
2022-11-05T23:26:52.515Z,22.00
2022-11-05T23:29:24.050Z,21.90
2022-11-05T23:32:12.772Z,21.90
2022-11-05T23:34:41.646Z,21.90
2022-11-05T23:37:30.788Z,21.90
2022-11-05T23:39:59.691Z,21.90
2022-11-05T23:42:48.009Z,22.00
2022-11-05T23:45:37.030Z,22.00
2022-11-05T23:48:22.234Z,22.00
2022-11-05T23:50:57.554Z,22.00
2022-11-05T23:53:26.838Z,22.10
2022-11-05T23:55:59.734Z,22.10
2022-11-05T23:58:28.857Z,22.10
